Aosta, Italia

09:56 PM CEST del 30 Agosto 2015 (GMT +0200)
Senin, Saint-Christophe | | Change Station
CLOSE
Current Station
Stazione meteo personale
Location: Aosta, VALLE DAOSTA
Altitudine: 2392 ft
Stazioni meteo nelle vicinanze

Alt. 2392 ft 45.75 °N, 7.34 °E | Updated 1 minute ago

Clear
Sereno
70.0 °F
Sembra 70.0 °F
N
3.0
Vento Variabile Vento da NNO
Gusts 5.0 mph

Oggi
Massima -- | Minima -- °F
--% Possibilità di precip.
Ieri
Massima -- | Minima -- °F
Precip. -- in
6:48 AM 8:13 PM
Luna piena, 98% visible
Pressione 30.12 in
Visibilità 6.2 miglia
Nuvole
Punto di rugiada 59 °F
Umidità 68%
Piovosità 0.00 in
Spessore del manto nevoso Non disponibile.
Raggi UV Non disponibile.
Polline Non disponibile.
Qualità dell'aria Non disponibile.
Flu Activity Non disponibile.
METAR LSMS 301950Z AUTO 00000KT 9999NDV NCD 24/14 Q1020 RMK BLU
Pressione 30.12 in
Visibilità 6.2 miglia
Nuvole
Punto di rugiada 59 °F
Umidità 68%
Piovosità 0.00 in
Spessore del manto nevoso Non disponibile.
Raggi UV Non disponibile.
Polline Non disponibile.
Qualità dell'aria Non disponibile.
Flu Activity Non disponibile.
METAR LSMS 301950Z AUTO 00000KT 9999NDV NCD 24/14 Q1020 RMK BLU

10-Day Weather Forecast

×

Almanac

Astronomia

Aug. 30, 2015 Alba Tramonto
Ora attuale
Crepuscolo civile
Crepuscolo nautico
Crepuscolo astronomico
Luna
Estensione della luce visibile
Lunghezza del giorno
Tomorrow will be .
, % of the Moon is Illuminated

Gli estremi di oggi

Massime Regione Minime Regione

Community

WunderPhotos

Upload Photos

1,851,041 foto caricate!

WunderBlogs® & News

Nearby

Qualità dell'aria

  Qualità dell'aria Indice AQ Inquinante
Not available.

Profondità neve

Stazione Profondità Altitudine

Attività sismica

Città  Distanza Mag. Data & Ora
Minimo Magnitudo Mostrato è 2.5.

Temperature delle acque costiere

Località Temperatura

Stations

Stazioni meteo nelle vicinanze

Ubicazione della stazione Temp. Raffreddamento del vento Punto di rugiada Umidità Vento Precip. Alt. Aggiornato Tipo